createdAt,value
2018-07-23T00:00:25.150Z,66.41
2018-07-23T00:02:54.096Z,65.61
2018-07-23T00:05:23.355Z,65.25
2018-07-23T00:07:52.235Z,64.79
2018-07-23T00:10:21.488Z,64.85
2018-07-23T00:12:50.602Z,65.45
2018-07-23T00:15:19.733Z,64.41
2018-07-23T00:17:49.020Z,65.49
2018-07-23T00:20:18.259Z,65.25
2018-07-23T00:22:47.545Z,64.60
2018-07-23T00:25:16.747Z,64.78
2018-07-23T00:27:46.037Z,64.81
2018-07-23T00:30:15.320Z,64.51
2018-07-23T00:32:44.700Z,64.45
2018-07-23T00:35:14.127Z,65.53
2018-07-23T00:37:43.433Z,65.29
2018-07-23T00:40:12.697Z,64.81
2018-07-23T00:42:41.859Z,65.55
2018-07-23T00:45:11.024Z,65.18
2018-07-23T00:47:40.179Z,65.40
2018-07-23T00:50:09.548Z,66.24
2018-07-23T00:52:38.668Z,66.18
2018-07-23T00:55:07.771Z,66.44
2018-07-23T00:57:36.921Z,65.82
2018-07-23T01:00:06.177Z,66.83
2018-07-23T01:02:35.267Z,66.54
2018-07-23T01:05:04.380Z,66.70
2018-07-23T01:07:33.566Z,67.47
2018-07-23T01:10:02.689Z,66.63
2018-07-23T01:12:32.973Z,66.73
2018-07-23T01:15:02.291Z,66.81
2018-07-23T01:17:31.427Z,67.51
2018-07-23T01:20:00.955Z,67.43
2018-07-23T01:22:30.085Z,67.39
2018-07-23T01:24:59.540Z,67.77
2018-07-23T01:27:28.794Z,67.83
2018-07-23T01:29:57.964Z,68.47
2018-07-23T01:32:27.085Z,67.89
2018-07-23T01:34:56.224Z,68.05
2018-07-23T01:37:25.354Z,67.79
2018-07-23T01:39:54.546Z,68.12
2018-07-23T01:42:23.759Z,68.23
2018-07-23T01:44:52.763Z,68.38
2018-07-23T01:47:21.959Z,68.50
2018-07-23T01:49:51.191Z,68.04
2018-07-23T01:52:20.387Z,68.60
2018-07-23T01:54:49.643Z,69.52
2018-07-23T01:57:18.812Z,68.77
2018-07-23T01:59:47.900Z,69.64
2018-07-23T02:02:17.171Z,69.86
2018-07-23T02:04:46.453Z,70.31
2018-07-23T02:07:15.679Z,70.15
2018-07-23T02:09:44.865Z,70.38
2018-07-23T02:12:13.827Z,70.19
2018-07-23T02:14:43.070Z,69.75
2018-07-23T02:17:12.316Z,69.39
2018-07-23T02:19:41.837Z,70.42
2018-07-23T02:22:11.276Z,70.24
2018-07-23T02:24:40.473Z,70.23
2018-07-23T02:27:09.854Z,71.10
2018-07-23T02:29:38.875Z,70.85
2018-07-23T02:32:08.098Z,71.24
2018-07-23T02:34:37.299Z,71.06
2018-07-23T02:37:06.505Z,71.29
2018-07-23T02:39:35.647Z,70.76
2018-07-23T02:42:05.860Z,71.48
2018-07-23T02:44:35.159Z,71.19
2018-07-23T02:47:04.200Z,70.82
2018-07-23T02:49:33.359Z,72.19
2018-07-23T02:52:02.807Z,71.41
2018-07-23T02:54:31.762Z,72.01
2018-07-23T02:57:00.933Z,72.43
2018-07-23T02:59:30.252Z,71.51
2018-07-23T03:01:59.473Z,72.77
2018-07-23T03:04:28.614Z,72.72
2018-07-23T03:06:57.785Z,72.34
2018-07-23T03:09:26.911Z,71.98
2018-07-23T03:11:56.149Z,72.90
2018-07-23T03:14:25.271Z,72.35
2018-07-23T03:16:54.445Z,72.67
2018-07-23T03:19:23.632Z,72.88
2018-07-23T03:21:53.053Z,73.49
2018-07-23T03:24:21.855Z,73.31
2018-07-23T03:26:50.977Z,74.08
2018-07-23T03:29:20.190Z,74.25
2018-07-23T03:31:49.364Z,74.75
2018-07-23T03:34:18.570Z,75.70
2018-07-23T03:36:47.733Z,75.71
2018-07-23T03:39:17.134Z,74.64
2018-07-23T03:41:46.339Z,75.33
2018-07-23T03:44:15.848Z,75.66
2018-07-23T03:46:45.288Z,75.02
2018-07-23T03:49:14.516Z,74.33
2018-07-23T03:51:43.835Z,74.35
2018-07-23T03:54:13.130Z,74.98
2018-07-23T03:56:42.133Z,74.70
2018-07-23T03:59:11.416Z,75.27
2018-07-23T04:01:40.430Z,74.83
2018-07-23T04:04:09.748Z,73.89
2018-07-23T04:06:38.929Z,74.54
2018-07-23T04:09:09.289Z,74.61
2018-07-23T04:11:38.464Z,74.54
2018-07-23T04:14:08.548Z,75.22
2018-07-23T04:16:37.539Z,75.12
2018-07-23T04:19:07.038Z,75.01
2018-07-23T04:21:36.359Z,73.65
2018-07-23T04:24:05.805Z,73.71
2018-07-23T04:26:35.134Z,73.78
2018-07-23T04:29:04.351Z,73.05
2018-07-23T04:31:33.455Z,73.11
2018-07-23T04:34:02.669Z,71.50
2018-07-23T04:36:31.799Z,72.26
2018-07-23T04:39:01.002Z,71.23
2018-07-23T04:41:30.160Z,70.34
2018-07-23T04:43:59.419Z,69.98
2018-07-23T04:46:28.948Z,68.95
2018-07-23T04:48:58.163Z,68.99
2018-07-23T04:51:27.355Z,67.98
2018-07-23T04:53:56.546Z,68.14
2018-07-23T04:56:25.783Z,66.53
2018-07-23T04:58:54.902Z,65.86
2018-07-23T05:01:24.137Z,65.40
2018-07-23T05:03:53.420Z,65.84
2018-07-23T05:06:22.631Z,64.88
2018-07-23T05:08:51.840Z,64.06
2018-07-23T05:11:21.028Z,64.41
2018-07-23T05:13:50.268Z,63.51
2018-07-23T05:16:19.512Z,64.00
2018-07-23T05:18:48.798Z,63.33
2018-07-23T05:21:18.033Z,62.53
2018-07-23T05:23:47.492Z,61.44
2018-07-23T05:26:16.696Z,62.57
2018-07-23T05:28:45.914Z,62.24
2018-07-23T05:31:15.192Z,60.76
2018-07-23T05:33:45.656Z,59.27
2018-07-23T05:36:15.014Z,59.75
2018-07-23T05:38:44.249Z,58.79
2018-07-23T05:41:13.556Z,59.17
2018-07-23T05:43:42.919Z,58.02
2018-07-23T05:46:12.109Z,59.94
2018-07-23T05:48:42.024Z,59.99
2018-07-23T05:51:11.496Z,59.84
2018-07-23T05:53:40.873Z,60.64
2018-07-23T05:56:10.060Z,61.72
2018-07-23T05:58:39.255Z,60.30
2018-07-23T06:01:08.405Z,59.98
2018-07-23T06:03:37.645Z,59.44
2018-07-23T06:06:06.773Z,58.31
2018-07-23T06:08:35.964Z,58.41
2018-07-23T06:11:05.118Z,57.99
2018-07-23T06:13:34.339Z,56.51
2018-07-23T06:16:03.509Z,57.75
2018-07-23T06:18:32.641Z,57.10
2018-07-23T06:21:01.789Z,56.20
2018-07-23T06:23:31.090Z,55.60
2018-07-23T06:26:00.271Z,52.91
2018-07-23T06:28:29.411Z,53.34
2018-07-23T06:30:58.599Z,52.05
2018-07-23T06:33:27.885Z,50.51
2018-07-23T06:35:56.963Z,50.12
2018-07-23T06:38:26.105Z,49.39
2018-07-23T06:40:55.344Z,48.53
2018-07-23T06:43:24.596Z,47.70
2018-07-23T06:45:53.778Z,46.32
2018-07-23T06:48:22.965Z,46.50
2018-07-23T06:50:52.122Z,47.24
2018-07-23T06:53:21.511Z,45.88
2018-07-23T06:55:50.497Z,46.15
2018-07-23T06:58:19.730Z,45.81
2018-07-23T07:00:49.024Z,44.92
2018-07-23T07:03:18.366Z,42.93
2018-07-23T07:05:47.789Z,44.11
2018-07-23T07:08:17.023Z,42.97
2018-07-23T07:10:46.405Z,42.23
2018-07-23T07:13:16.027Z,41.28
2018-07-23T07:15:45.342Z,40.54
2018-07-23T07:18:14.718Z,41.32
2018-07-23T07:20:43.911Z,42.29
2018-07-23T07:23:13.092Z,41.95
2018-07-23T07:25:42.499Z,43.49
2018-07-23T07:28:11.944Z,44.32
2018-07-23T07:30:41.145Z,44.11
2018-07-23T07:33:10.304Z,43.26
2018-07-23T07:35:39.457Z,43.50
2018-07-23T07:38:08.906Z,44.05
2018-07-23T07:40:38.482Z,43.12
2018-07-23T07:43:07.442Z,42.72
2018-07-23T07:45:36.676Z,42.93
2018-07-23T07:48:06.006Z,42.52
2018-07-23T07:50:35.211Z,41.52
2018-07-23T07:53:04.100Z,41.94
2018-07-23T07:55:33.355Z,44.23
2018-07-23T07:58:02.557Z,43.33
2018-07-23T08:00:31.793Z,42.78
2018-07-23T08:03:00.925Z,43.81
2018-07-23T08:05:30.201Z,42.91
2018-07-23T08:07:59.443Z,44.03
2018-07-23T08:10:28.618Z,44.64
2018-07-23T08:12:57.799Z,46.07
2018-07-23T08:15:27.149Z,45.46
2018-07-23T08:17:56.380Z,44.97
2018-07-23T08:20:25.490Z,45.03
2018-07-23T08:22:54.638Z,45.05
2018-07-23T08:25:23.816Z,45.01
2018-07-23T08:27:53.020Z,46.21
2018-07-23T08:30:22.026Z,45.95
2018-07-23T08:32:51.210Z,45.06
2018-07-23T08:35:20.132Z,44.32
2018-07-23T08:37:49.441Z,44.16
2018-07-23T08:40:18.720Z,44.02
2018-07-23T08:42:47.863Z,44.15
2018-07-23T08:45:16.844Z,43.98
2018-07-23T08:47:46.082Z,43.27
2018-07-23T08:50:15.397Z,42.81
2018-07-23T08:52:44.697Z,41.97
2018-07-23T08:55:14.131Z,41.79
2018-07-23T08:57:43.445Z,39.79
2018-07-23T09:00:12.994Z,38.38
2018-07-23T09:02:42.224Z,37.23
2018-07-23T09:05:11.590Z,37.78
2018-07-23T09:07:40.919Z,36.81
2018-07-23T09:10:10.222Z,37.07
2018-07-23T09:12:39.416Z,37.95
2018-07-23T09:15:08.508Z,37.32
2018-07-23T09:17:37.826Z,37.31
2018-07-23T09:20:07.077Z,38.03
2018-07-23T09:22:36.970Z,36.31
2018-07-23T09:25:06.430Z,36.14
2018-07-23T09:27:35.606Z,36.71
2018-07-23T09:30:06.162Z,36.09
2018-07-23T09:32:35.379Z,36.01
2018-07-23T09:35:04.572Z,35.54
2018-07-23T09:37:33.732Z,35.62
2018-07-23T09:40:02.918Z,35.27
2018-07-23T09:42:32.117Z,34.27
2018-07-23T09:45:01.274Z,34.52
2018-07-23T09:47:30.548Z,33.29
2018-07-23T09:49:59.797Z,33.52
2018-07-23T09:52:28.979Z,34.43
2018-07-23T09:54:58.175Z,33.79
2018-07-23T09:57:27.386Z,34.33
2018-07-23T09:59:56.579Z,34.37
2018-07-23T10:02:25.779Z,35.13
2018-07-23T10:04:54.933Z,34.96
2018-07-23T10:07:24.151Z,35.30
2018-07-23T10:09:53.343Z,35.38
2018-07-23T10:12:22.508Z,33.73
2018-07-23T10:14:51.675Z,31.73
2018-07-23T10:17:20.830Z,31.34
2018-07-23T10:19:50.002Z,31.28
2018-07-23T10:22:19.344Z,30.99
2018-07-23T10:24:48.432Z,29.48
2018-07-23T10:27:17.657Z,30.50
2018-07-23T10:29:46.828Z,31.87
2018-07-23T10:32:15.775Z,31.85
2018-07-23T10:34:45.170Z,32.48
2018-07-23T10:37:14.459Z,32.20
2018-07-23T10:39:43.798Z,33.96
2018-07-23T10:42:13.030Z,34.27
2018-07-23T10:44:42.271Z,34.05
2018-07-23T10:47:11.562Z,34.31
2018-07-23T10:49:40.759Z,34.95
2018-07-23T10:52:10.032Z,34.10
2018-07-23T10:54:39.191Z,34.53
2018-07-23T10:57:08.434Z,34.32
2018-07-23T10:59:37.594Z,33.75
2018-07-23T11:02:06.789Z,33.75
2018-07-23T11:04:35.996Z,34.02
2018-07-23T11:07:05.032Z,32.98
2018-07-23T11:09:34.204Z,31.45
2018-07-23T11:12:03.478Z,31.40
2018-07-23T11:14:32.583Z,30.39
2018-07-23T11:17:01.711Z,30.19
2018-07-23T11:19:31.120Z,30.21
2018-07-23T11:22:00.337Z,29.99
2018-07-23T11:24:29.569Z,28.37
2018-07-23T11:26:58.789Z,28.19
2018-07-23T11:29:27.954Z,29.09
2018-07-23T11:31:56.994Z,28.49
2018-07-23T11:34:26.154Z,29.54
2018-07-23T11:36:55.298Z,29.02
2018-07-23T11:39:24.487Z,29.47
2018-07-23T11:41:53.685Z,28.87
2018-07-23T11:44:22.903Z,28.80
2018-07-23T11:46:52.083Z,29.71
2018-07-23T11:49:21.252Z,31.07
2018-07-23T11:51:50.520Z,31.64
2018-07-23T11:54:19.644Z,30.33
2018-07-23T11:56:48.824Z,30.13
2018-07-23T11:59:18.099Z,28.59
2018-07-23T12:01:47.470Z,29.19
2018-07-23T12:04:16.679Z,28.19
2018-07-23T12:06:45.545Z,28.67
2018-07-23T12:09:14.923Z,28.67
2018-07-23T12:11:44.188Z,29.35
2018-07-23T12:14:13.412Z,28.10
2018-07-23T12:16:42.802Z,29.09
2018-07-23T12:19:12.050Z,29.30
2018-07-23T12:21:41.291Z,29.72
2018-07-23T12:24:10.445Z,29.86
2018-07-23T12:26:39.820Z,31.79
2018-07-23T12:29:08.948Z,31.39
2018-07-23T12:31:38.160Z,30.67
2018-07-23T12:34:14.890Z,30.32
2018-07-23T12:36:44.255Z,31.30
2018-07-23T12:39:13.719Z,31.86
2018-07-23T12:41:43.174Z,31.77
2018-07-23T12:44:12.365Z,32.69
2018-07-23T12:46:41.500Z,33.31
2018-07-23T12:49:10.741Z,33.99
2018-07-23T12:51:40.167Z,32.10
2018-07-23T12:54:09.299Z,33.17
2018-07-23T12:56:38.426Z,32.99
2018-07-23T12:59:07.686Z,34.27
2018-07-23T13:01:36.804Z,33.33
2018-07-23T13:04:06.048Z,32.18
2018-07-23T13:06:35.308Z,32.33
2018-07-23T13:09:07.727Z,30.77
2018-07-23T13:11:36.948Z,31.01
2018-07-23T13:14:06.205Z,29.99
2018-07-23T13:16:35.578Z,29.65
2018-07-23T13:19:04.951Z,29.27
2018-07-23T13:21:34.161Z,30.19
2018-07-23T13:24:03.328Z,30.15
2018-07-23T13:26:32.563Z,28.93
2018-07-23T13:29:01.796Z,28.75
2018-07-23T13:31:31.006Z,29.97
2018-07-23T13:34:00.216Z,29.62
2018-07-23T13:36:29.451Z,29.27
2018-07-23T13:38:58.575Z,28.96
2018-07-23T13:41:27.750Z,29.88
2018-07-23T13:43:56.825Z,29.21
2018-07-23T13:46:26.017Z,29.96
2018-07-23T13:48:55.185Z,31.04
2018-07-23T13:51:24.311Z,29.15
2018-07-23T13:53:53.463Z,30.10
2018-07-23T13:56:22.647Z,30.18
2018-07-23T13:58:51.926Z,29.45
2018-07-23T14:01:21.063Z,30.37
2018-07-23T14:03:50.354Z,31.06
2018-07-23T14:06:20.934Z,30.39
2018-07-23T14:08:50.313Z,30.65
2018-07-23T14:11:19.771Z,30.41
2018-07-23T14:13:49.067Z,31.66
2018-07-23T14:16:18.259Z,31.32
2018-07-23T14:18:47.459Z,30.58
2018-07-23T14:21:16.738Z,30.75
2018-07-23T14:23:46.004Z,31.25
2018-07-23T14:26:15.275Z,30.32
2018-07-23T14:28:44.734Z,30.55
2018-07-23T14:31:13.937Z,30.72
2018-07-23T14:33:43.128Z,30.58
2018-07-23T14:36:12.989Z,30.77
2018-07-23T14:38:42.393Z,29.66
2018-07-23T14:41:11.569Z,30.93
2018-07-23T14:43:40.732Z,30.68
2018-07-23T14:46:09.860Z,30.94
2018-07-23T14:48:39.200Z,30.10
2018-07-23T14:51:08.357Z,31.75
2018-07-23T14:53:37.493Z,31.76
2018-07-23T14:56:06.641Z,32.11
2018-07-23T14:58:35.552Z,32.32
2018-07-23T15:01:04.797Z,33.50
2018-07-23T15:03:33.904Z,33.31
2018-07-23T15:06:03.140Z,33.03
2018-07-23T15:08:32.295Z,32.85
2018-07-23T15:11:01.440Z,32.31
2018-07-23T15:13:30.606Z,32.61
2018-07-23T15:15:59.759Z,31.82
2018-07-23T15:18:28.879Z,33.26
2018-07-23T15:20:58.054Z,31.95
2018-07-23T15:23:27.293Z,32.75
2018-07-23T15:25:56.455Z,33.25
2018-07-23T15:28:25.821Z,33.74
2018-07-23T15:30:55.027Z,33.67
2018-07-23T15:33:24.756Z,31.83
2018-07-23T15:35:53.899Z,32.23
2018-07-23T15:38:23.153Z,34.03
2018-07-23T15:40:52.290Z,33.26
2018-07-23T15:43:21.398Z,33.30
2018-07-23T15:45:50.527Z,33.02
2018-07-23T15:48:19.488Z,32.71
2018-07-23T15:50:48.715Z,35.19
2018-07-23T15:53:17.962Z,35.58
2018-07-23T15:55:47.258Z,35.01
2018-07-23T15:58:16.483Z,34.76
2018-07-23T16:00:45.742Z,35.41
2018-07-23T16:03:14.961Z,35.24
2018-07-23T16:05:44.230Z,35.98
2018-07-23T16:08:13.479Z,34.38
2018-07-23T16:10:43.155Z,34.09
2018-07-23T16:13:12.597Z,34.40
2018-07-23T16:15:41.958Z,33.68
2018-07-23T16:18:11.169Z,34.81
2018-07-23T16:20:40.407Z,34.87
2018-07-23T16:23:09.563Z,36.51
2018-07-23T16:25:38.687Z,35.81
2018-07-23T16:28:07.927Z,34.89
2018-07-23T16:30:37.064Z,35.92
2018-07-23T16:33:06.313Z,35.87
2018-07-23T16:35:35.462Z,36.17
2018-07-23T16:38:04.622Z,34.67
2018-07-23T16:40:33.888Z,35.93
2018-07-23T16:43:02.862Z,36.02
2018-07-23T16:45:32.035Z,35.47
2018-07-23T16:48:01.221Z,36.57
2018-07-23T16:50:30.427Z,35.57
2018-07-23T16:52:59.647Z,36.00
2018-07-23T16:55:29.065Z,36.80
2018-07-23T16:57:58.294Z,36.52
2018-07-23T17:00:27.498Z,35.91
2018-07-23T17:02:56.661Z,36.92
2018-07-23T17:05:25.947Z,36.54
2018-07-23T17:07:55.244Z,37.33
2018-07-23T17:10:24.434Z,37.26
2018-07-23T17:12:53.567Z,37.13
2018-07-23T17:15:22.731Z,37.80
2018-07-23T17:17:51.781Z,36.66
2018-07-23T17:20:21.051Z,37.35
2018-07-23T17:22:50.211Z,37.18
2018-07-23T17:25:19.637Z,38.81
2018-07-23T17:27:48.882Z,37.54
2018-07-23T17:30:18.283Z,38.18
2018-07-23T17:32:47.871Z,38.92
2018-07-23T17:35:18.144Z,39.12
2018-07-23T17:37:47.743Z,37.96
2018-07-23T17:40:17.370Z,38.45
2018-07-23T17:42:46.711Z,38.91
2018-07-23T17:45:16.143Z,39.82
2018-07-23T17:47:45.486Z,39.15
2018-07-23T17:50:14.791Z,40.04
2018-07-23T17:55:10.735Z,39.58
2018-07-23T17:57:39.761Z,39.69
2018-07-23T18:00:08.878Z,40.12
2018-07-23T18:02:38.041Z,40.02
2018-07-23T18:05:07.304Z,39.89
2018-07-23T18:07:36.364Z,40.50
2018-07-23T18:10:05.738Z,40.33
2018-07-23T18:12:34.967Z,41.47
2018-07-23T18:15:04.199Z,42.04
2018-07-23T18:17:33.502Z,41.17
2018-07-23T18:20:02.603Z,41.17
2018-07-23T18:22:31.812Z,41.68
2018-07-23T18:25:01.166Z,42.29
2018-07-23T18:27:30.392Z,41.23
2018-07-23T18:29:59.542Z,41.48
2018-07-23T18:32:28.842Z,42.70
2018-07-23T18:34:58.251Z,43.01
2018-07-23T18:37:27.443Z,42.74
2018-07-23T18:39:56.800Z,42.24
2018-07-23T18:42:26.207Z,43.13
2018-07-23T18:44:55.371Z,44.39
2018-07-23T18:47:24.585Z,44.84
2018-07-23T18:49:58.549Z,44.07
2018-07-23T18:52:28.741Z,44.16
2018-07-23T18:54:59.640Z,43.62
2018-07-23T18:57:28.878Z,44.20
2018-07-23T18:59:58.135Z,44.55
2018-07-23T19:02:27.342Z,44.35
2018-07-23T19:04:56.522Z,44.41
2018-07-23T19:07:25.749Z,44.12
2018-07-23T19:09:55.024Z,44.19
2018-07-23T19:12:25.143Z,43.70
2018-07-23T19:14:54.563Z,43.48
2018-07-23T19:17:23.573Z,43.59
2018-07-23T19:19:52.747Z,43.48
2018-07-23T19:22:21.970Z,43.83
2018-07-23T19:24:51.262Z,43.00
2018-07-23T19:27:20.678Z,43.70
2018-07-23T19:29:49.766Z,42.95
2018-07-23T19:32:19.195Z,43.26
2018-07-23T19:34:48.559Z,43.53
2018-07-23T19:37:17.757Z,44.97
2018-07-23T19:39:47.076Z,44.42
2018-07-23T19:42:16.553Z,45.83
2018-07-23T19:44:45.860Z,45.50
2018-07-23T19:47:15.207Z,46.59
2018-07-23T19:49:44.592Z,48.20
2018-07-23T19:52:13.904Z,49.38
2018-07-23T19:54:43.290Z,48.39
2018-07-23T19:57:12.766Z,47.86
2018-07-23T19:59:42.164Z,47.66
2018-07-23T20:02:11.597Z,48.93
2018-07-23T20:04:40.919Z,49.11
2018-07-23T20:07:10.119Z,49.46
2018-07-23T20:09:39.345Z,48.19
2018-07-23T20:12:08.557Z,49.66
2018-07-23T20:14:38.032Z,49.56
2018-07-23T20:17:07.282Z,49.15
2018-07-23T20:19:36.528Z,49.28
2018-07-23T20:22:05.571Z,50.66
2018-07-23T20:24:34.819Z,50.55
2018-07-23T20:27:04.081Z,50.37
2018-07-23T20:29:33.397Z,50.65
2018-07-23T20:32:02.594Z,50.53
2018-07-23T20:34:31.778Z,51.83
2018-07-23T20:37:01.088Z,52.18
2018-07-23T20:39:30.419Z,52.53
2018-07-23T20:41:59.644Z,52.34
2018-07-23T20:44:28.853Z,52.30
2018-07-23T20:46:58.066Z,52.18
2018-07-23T20:49:27.241Z,53.23
2018-07-23T20:51:56.753Z,53.45
2018-07-23T20:54:25.985Z,52.65
2018-07-23T20:56:55.276Z,52.32
2018-07-23T20:59:24.454Z,52.69
2018-07-23T21:01:53.671Z,52.96
2018-07-23T21:04:22.896Z,53.72
2018-07-23T21:06:52.181Z,53.10
2018-07-23T21:09:21.397Z,53.43
2018-07-23T21:11:50.555Z,54.45
2018-07-23T21:14:20.014Z,53.89
2018-07-23T21:16:49.313Z,54.53
2018-07-23T21:19:18.349Z,54.01
2018-07-23T21:21:48.242Z,53.89
2018-07-23T21:24:17.686Z,54.06
2018-07-23T21:26:46.896Z,53.57
2018-07-23T21:29:16.230Z,53.23
2018-07-23T21:31:45.915Z,53.56
2018-07-23T21:34:15.390Z,53.13
2018-07-23T21:36:44.631Z,53.94
2018-07-23T21:39:13.912Z,54.61
2018-07-23T21:41:43.197Z,53.27
2018-07-23T21:44:12.501Z,53.38
2018-07-23T21:46:41.540Z,52.79
2018-07-23T21:49:10.768Z,54.07
2018-07-23T21:51:40.214Z,54.07
2018-07-23T21:54:09.372Z,54.60
2018-07-23T21:56:38.598Z,54.55
2018-07-23T21:59:07.945Z,54.48
2018-07-23T22:01:37.216Z,53.73
2018-07-23T22:04:06.363Z,54.04
2018-07-23T22:06:35.562Z,54.13
2018-07-23T22:09:07.875Z,54.39
2018-07-23T22:11:37.488Z,53.77
2018-07-23T22:14:08.019Z,54.18
2018-07-23T22:16:37.632Z,53.89
2018-07-23T22:19:06.903Z,54.48
2018-07-23T22:21:37.029Z,55.00
2018-07-23T22:24:06.324Z,54.03
2018-07-23T22:26:35.574Z,55.16
2018-07-23T22:29:04.771Z,54.43
2018-07-23T22:31:33.863Z,55.88
2018-07-23T22:34:03.008Z,57.02
2018-07-23T22:36:32.206Z,56.39
2018-07-23T22:39:01.167Z,56.15
2018-07-23T22:41:30.361Z,57.46
2018-07-23T22:43:59.666Z,57.31
2018-07-23T22:46:28.958Z,56.92
2018-07-23T22:48:58.242Z,58.25
2018-07-23T22:51:27.447Z,58.03
2018-07-23T22:53:56.869Z,58.47
2018-07-23T22:56:26.130Z,58.63
2018-07-23T22:58:55.390Z,59.65
2018-07-23T23:01:24.633Z,59.03
2018-07-23T23:03:53.741Z,59.79
2018-07-23T23:06:22.940Z,59.11
2018-07-23T23:08:52.168Z,59.39
2018-07-23T23:11:21.198Z,59.51
2018-07-23T23:13:50.355Z,58.46
2018-07-23T23:16:19.930Z,58.79
2018-07-23T23:18:49.226Z,58.57
2018-07-23T23:21:18.466Z,58.56
2018-07-23T23:23:47.644Z,58.19
2018-07-23T23:26:17.249Z,59.33
2018-07-23T23:28:46.492Z,58.53
2018-07-23T23:31:15.822Z,59.14
2018-07-23T23:33:45.213Z,59.23
2018-07-23T23:36:14.661Z,58.29
2018-07-23T23:38:44.981Z,57.69
2018-07-23T23:41:14.344Z,57.87
2018-07-23T23:43:43.723Z,57.24
2018-07-23T23:46:13.321Z,57.81
2018-07-23T23:48:43.824Z,58.05
2018-07-23T23:51:13.267Z,57.83
2018-07-23T23:53:42.502Z,58.56
2018-07-23T23:56:11.725Z,57.70
2018-07-23T23:58:41.041Z,58.10
